Time;durP1;ratioP1;P1;durP2;ratioP2;P2;SDS_P1;SDS_P2;PMS_P1;PMS_P2;Temp;Humidity;BMP_temperature;BMP_pressure;BME280_temperature;BME280_humidity;BME280_pressure;Samples;Min_cycle;Max_cycle;Signal;HPM_P1;HPM_P2
2022/12/27 00:01:49;;;;;;;;;12.20;11.00;;;;;13.94;59.33;98635.56;6251101;27;96937;-65
2022/12/27 00:04:53;;;;;;;;;14.00;13.40;;;;;13.96;59.20;98634.25;6252864;27;96359;-65
2022/12/27 00:07:57;;;;;;;;;14.00;13.25;;;;;13.99;59.03;98641.88;6251091;27;96450;-65
2022/12/27 00:11:04;;;;;;;;;14.00;13.00;;;;;14.03;59.05;98632.16;6252027;27;96312;-64
2022/12/27 00:14:08;;;;;;;;;12.40;11.40;;;;;14.08;58.83;98621.41;6247447;27;96314;-64
2022/12/27 00:17:13;;;;;;;;;14.00;13.00;;;;;14.10;58.54;98629.28;6245070;28;96279;-65
2022/12/27 00:20:16;;;;;;;;;12.60;12.00;;;;;14.09;58.44;98622.22;6245070;28;96179;-65
2022/12/27 00:23:20;;;;;;;;;11.00;11.00;;;;;14.03;58.55;98626.75;6245523;27;96910;-65
2022/12/27 00:26:25;;;;;;;;;9.60;9.00;;;;;13.80;58.82;98618.84;6241581;28;96268;-65
2022/12/27 00:29:29;;;;;;;;;8.00;8.00;;;;;13.91;58.59;98609.78;6234187;28;96639;-64
2022/12/27 00:32:33;;;;;;;;;11.00;10.00;;;;;13.88;58.48;98608.38;6270751;27;96572;-65
2022/12/27 00:35:38;;;;;;;;;8.75;8.75;;;;;13.89;58.30;98590.25;6238782;27;96591;-65
2022/12/27 00:38:43;;;;;;;;;11.00;11.00;;;;;13.86;58.44;98602.41;6228176;28;96203;-66
2022/12/27 00:41:46;;;;;;;;;9.75;9.25;;;;;13.93;57.98;98596.78;6254732;27;96294;-65
2022/12/27 00:44:50;;;;;;;;;9.00;7.80;;;;;13.97;57.84;98599.84;6248233;27;98422;-65
2022/12/27 00:47:54;;;;;;;;;10.00;9.00;;;;;14.02;57.74;98600.75;6252019;27;96256;-65
2022/12/27 00:51:00;;;;;;;;;8.00;7.80;;;;;13.92;57.86;98597.06;6230844;27;96856;-65
2022/12/27 00:54:03;;;;;;;;;8.75;8.00;;;;;14.05;57.61;98599.41;6261148;27;96278;-65
2022/12/27 00:57:08;;;;;;;;;9.00;9.00;;;;;14.07;57.16;98589.16;6233561;28;96238;-64
2022/12/27 01:00:13;;;;;;;;;8.80;8.00;;;;;14.10;57.27;98581.31;6230881;27;99062;-64
2022/12/27 01:03:19;;;;;;;;;9.50;9.50;;;;;14.11;57.02;98579.44;6226842;28;97967;-64
2022/12/27 01:06:27;;;;;;;;;9.40;8.80;;;;;14.13;57.08;98569.97;6257323;27;96693;-65
2022/12/27 01:09:31;;;;;;;;;8.80;8.80;;;;;14.08;56.71;98563.66;6241536;27;96844;-64
2022/12/27 01:12:35;;;;;;;;;10.00;9.00;;;;;14.06;57.12;98571.22;6258085;27;96363;-64
2022/12/27 01:15:42;;;;;;;;;9.60;8.60;;;;;13.97;57.32;98579.00;6253183;27;96666;-64
2022/12/27 01:18:47;;;;;;;;;9.00;9.00;;;;;13.95;57.28;98578.41;6256487;27;96380;-64
2022/12/27 01:21:51;;;;;;;;;10.50;9.50;;;;;13.94;57.51;98565.91;6247339;27;96254;-64
2022/12/27 01:24:55;;;;;;;;;11.00;10.75;;;;;14.03;57.40;98572.53;6243459;27;97183;-65
2022/12/27 01:27:58;;;;;;;;;9.20;8.80;;;;;14.03;57.59;98563.59;6238810;27;96510;-64
2022/12/27 01:31:05;;;;;;;;;9.80;9.20;;;;;13.93;58.05;98560.78;6240946;28;96391;-64
2022/12/27 01:34:10;;;;;;;;;9.00;9.00;;;;;14.01;57.66;98561.16;6253469;27;97320;-64
2022/12/27 01:37:13;;;;;;;;;10.00;9.00;;;;;14.07;57.61;98549.31;6259865;27;96335;-65
2022/12/27 01:40:17;;;;;;;;;8.00;8.00;;;;;14.13;57.60;98552.88;6236927;27;96912;-64
2022/12/27 01:43:19;;;;;;;;;8.00;7.00;;;;;14.06;57.70;98553.09;6236429;27;96284;-65
2022/12/27 01:46:23;;;;;;;;;9.00;8.00;;;;;14.01;58.01;98539.47;6257395;27;96670;-65
2022/12/27 01:49:28;;;;;;;;;7.20;7.00;;;;;13.98;58.17;98549.97;6253407;27;96304;-65
2022/12/27 01:52:38;;;;;;;;;10.00;10.00;;;;;13.99;58.45;98540.78;6264330;27;96454;-65
2022/12/27 01:55:45;;;;;;;;;8.00;8.00;;;;;13.97;58.83;98556.47;6239695;27;96434;-64
2022/12/27 01:58:54;;;;;;;;;6.60;6.00;;;;;13.99;58.82;98557.84;6268542;27;96502;-64
2022/12/27 02:01:59;;;;;;;;;8.00;7.20;;;;;13.83;59.20;98529.72;6263747;27;96305;-64
2022/12/27 02:05:06;;;;;;;;;9.00;8.20;;;;;13.98;59.14;98548.09;6235125;27;96684;-64
2022/12/27 02:08:20;;;;;;;;;9.00;9.00;;;;;13.98;59.05;98550.78;6251020;27;96654;-65
2022/12/27 02:14:47;;;;;;;;;10.00;9.00;;;;;13.82;59.71;98551.69;6229405;28;96348;-65
2022/12/27 02:17:51;;;;;;;;;8.50;8.00;;;;;13.84;59.54;98553.06;6229716;28;96267;-65
2022/12/27 02:21:18;;;;;;;;;7.00;7.00;;;;;13.78;59.10;98529.66;6238517;28;96258;-65
2022/12/27 02:24:47;;;;;;;;;6.80;6.80;;;;;13.83;59.45;98545.16;6239067;27;96339;-65
2022/12/27 02:28:07;;;;;;;;;8.00;6.40;;;;;13.72;59.65;98559.66;6246732;27;96258;-64
2022/12/27 02:31:16;;;;;;;;;7.60;7.00;;;;;13.74;59.45;98561.03;6239264;27;96320;-65
2022/12/27 02:34:24;;;;;;;;;8.00;7.00;;;;;13.71;59.28;98564.25;6253900;27;96289;-64
2022/12/27 02:37:32;;;;;;;;;8.00;6.00;;;;;13.77;59.21;98571.41;6217057;28;96584;-64
2022/12/27 02:54:40;;;;;;;;;6.00;5.40;;;;;13.73;59.15;98583.78;6235978;27;97482;-64
2022/12/27 02:57:53;;;;;;;;;5.60;5.60;;;;;13.71;59.06;98591.34;6239663;27;96260;-64
2022/12/27 03:04:54;;;;;;;;;5.00;5.00;;;;;13.78;58.49;98596.63;6226707;28;96965;-64
2022/12/27 03:08:04;;;;;;;;;5.00;5.00;;;;;13.68;58.34;98586.41;6252710;27;96253;-65
2022/12/27 03:18:03;;;;;;;;;3.80;3.80;;;;;13.80;57.76;98614.25;6249835;27;96687;-64
2022/12/27 03:34:45;;;;;;;;;4.00;4.00;;;;;13.84;58.12;98671.47;6237256;27;96792;-64
2022/12/27 03:38:03;;;;;;;;;6.00;5.60;;;;;13.85;57.94;98660.38;6236472;27;96595;-64
2022/12/27 03:44:30;;;;;;;;;4.00;4.00;;;;;13.60;57.99;98670.00;6217795;28;96489;-64
2022/12/27 03:47:38;;;;;;;;;7.60;7.00;;;;;13.60;58.03;98676.25;6227300;28;96369;-64
2022/12/27 03:50:46;;;;;;;;;4.00;4.00;;;;;13.57;58.14;98687.56;6227432;28;96382;-64
2022/12/27 03:53:57;;;;;;;;;6.60;6.00;;;;;13.27;59.45;98689.75;6226791;28;96426;-64
2022/12/27 03:57:02;;;;;;;;;6.00;5.00;;;;;13.44;59.24;98690.56;6213042;28;96682;-64
2022/12/27 04:00:07;;;;;;;;;6.75;6.00;;;;;13.42;59.40;98687.31;6239750;27;97510;-64
2022/12/27 04:03:18;;;;;;;;;8.00;7.00;;;;;13.31;59.96;98702.56;6240580;27;96371;-65
2022/12/27 04:06:21;;;;;;;;;7.00;6.00;;;;;13.27;60.18;98712.22;6233435;28;96990;-65
2022/12/27 04:36:13;;;;;;;;;6.80;6.80;;;;;12.97;61.93;98741.38;6236893;27;96864;-64
2022/12/27 04:39:17;;;;;;;;;7.00;7.00;;;;;13.00;62.02;98754.44;6246066;27;96346;-64
2022/12/27 04:55:45;;;;;;;;;8.33;8.00;;;;;12.90;64.36;98778.59;6232953;27;96545;-64
2022/12/27 05:02:07;;;;;;;;;10.00;9.40;;;;;12.57;66.47;98785.47;6249869;27;96393;-64
2022/12/27 05:05:11;;;;;;;;;7.60;7.00;;;;;12.49;67.01;98791.25;6259026;27;96286;-64
2022/12/27 05:14:59;;;;;;;;;6.00;4.50;;;;;12.42;63.04;98824.84;6231989;27;96480;-64
2022/12/27 05:18:03;;;;;;;;;4.40;4.40;;;;;12.22;62.79;98825.19;6244221;27;96514;-64
2022/12/27 05:21:07;;;;;;;;;3.00;3.00;;;;;12.11;61.43;98832.25;6248439;28;96593;-65
2022/12/27 05:27:31;;;;;;;;;2.25;2.00;;;;;12.13;60.39;98846.34;6245484;28;96239;-64
2022/12/27 05:30:37;;;;;;;;;3.00;3.00;;;;;12.16;60.22;98858.59;6246494;28;96363;-64
2022/12/27 05:33:41;;;;;;;;;6.00;5.40;;;;;12.20;60.01;98870.56;6248691;28;96311;-64
2022/12/27 05:36:44;;;;;;;;;2.60;2.60;;;;;12.20;59.51;98881.38;6247634;28;96415;-64
2022/12/27 05:39:48;;;;;;;;;4.80;3.00;;;;;12.19;59.59;98879.72;6226941;28;98409;-65
2022/12/27 05:42:53;;;;;;;;;4.00;4.00;;;;;12.20;59.23;98892.19;6243812;28;96467;-65
2022/12/27 05:46:03;;;;;;;;;4.00;4.00;;;;;12.05;59.50;98881.81;6238413;27;96250;-64
2022/12/27 05:49:06;;;;;;;;;4.00;4.00;;;;;12.10;59.50;98903.56;6236249;28;96278;-64
2022/12/27 05:52:11;;;;;;;;;3.00;3.00;;;;;11.94;60.10;98909.63;6242586;27;96473;-64
2022/12/27 05:55:14;;;;;;;;;3.00;3.00;;;;;11.82;60.48;98922.28;6243888;27;96224;-64
2022/12/27 05:58:17;;;;;;;;;3.00;3.00;;;;;11.78;60.68;98929.16;6243827;27;96376;-64
2022/12/27 06:01:22;;;;;;;;;3.00;3.00;;;;;11.68;60.94;98916.16;6240191;27;96624;-66
2022/12/27 06:04:26;;;;;;;;;4.00;4.00;;;;;11.69;61.23;98938.59;6239475;27;96451;-65
2022/12/27 06:07:29;;;;;;;;;3.00;3.00;;;;;11.56;61.47;98950.41;6227273;28;96506;-65
2022/12/27 06:10:33;;;;;;;;;4.60;4.60;;;;;11.59;61.61;98962.63;6241954;27;96993;-65
2022/12/27 06:13:37;;;;;;;;;5.60;5.60;;;;;11.48;60.84;98958.81;6243441;27;96218;-65
2022/12/27 06:16:42;;;;;;;;;5.00;4.00;;;;;11.38;60.49;98974.72;6240157;28;96867;-65
2022/12/27 06:19:45;;;;;;;;;3.00;3.00;;;;;11.43;60.30;98980.28;6238900;27;96232;-65
2022/12/27 06:22:54;;;;;;;;;4.00;4.00;;;;;11.29;60.66;98998.47;6227997;28;96268;-64
2022/12/27 06:25:57;;;;;;;;;4.60;4.60;;;;;11.39;60.69;98991.72;6247190;28;96571;-64
2022/12/27 06:29:01;;;;;;;;;3.80;3.20;;;;;11.41;60.98;99012.06;6227740;28;96400;-64
2022/12/27 06:32:06;;;;;;;;;4.25;4.00;;;;;11.49;60.88;99029.81;6250809;27;96206;-64
2022/12/27 06:35:10;;;;;;;;;2.25;2.25;;;;;11.55;60.46;99056.75;6253294;28;96174;-65
2022/12/27 06:38:13;;;;;;;;;3.00;3.00;;;;;11.37;57.45;99061.31;6257574;28;97257;-65
2022/12/27 06:41:18;;;;;;;;;1.00;1.00;;;;;11.24;54.13;99071.16;6240784;28;96074;-65
2022/12/27 06:44:21;;;;;;;;;2.00;2.00;;;;;11.15;54.48;99086.00;6250147;28;96529;-64
2022/12/27 06:47:26;;;;;;;;;4.00;3.80;;;;;11.12;54.73;99089.13;6251293;27;96350;-65
2022/12/27 06:50:29;;;;;;;;;2.00;2.00;;;;;11.11;54.38;99095.56;6259173;27;96060;-65
2022/12/27 06:53:35;;;;;;;;;2.80;2.20;;;;;11.01;53.54;99124.09;6241358;28;96479;-65
2022/12/27 06:56:38;;;;;;;;;2.00;2.00;;;;;10.98;52.59;99124.53;6222461;28;96797;-65
2022/12/27 06:59:41;;;;;;;;;1.00;1.00;;;;;10.80;52.25;99141.44;6240703;28;96397;-65
2022/12/27 07:02:46;;;;;;;;;2.00;2.00;;;;;10.60;52.30;99157.75;6247208;28;96333;-65
2022/12/27 07:05:50;;;;;;;;;5.00;4.40;;;;;10.65;53.09;99173.28;6266600;27;96350;-64
2022/12/27 07:08:54;;;;;;;;;3.50;3.00;;;;;10.40;52.89;99182.09;6253899;27;96284;-65
2022/12/27 07:11:57;;;;;;;;;2.00;2.00;;;;;10.33;53.64;99180.47;6272641;27;96892;-65
2022/12/27 07:15:01;;;;;;;;;2.00;2.00;;;;;10.24;52.86;99193.34;6233348;28;96515;-65
2022/12/27 07:18:05;;;;;;;;;2.00;2.00;;;;;10.22;53.51;99202.66;6263565;27;96613;-65
2022/12/27 07:21:12;;;;;;;;;2.50;2.50;;;;;10.22;53.29;99214.28;6268164;27;96205;-65
2022/12/27 07:24:15;;;;;;;;;2.75;2.00;;;;;10.17;53.32;99232.09;6273952;27;96229;-65
2022/12/27 07:27:18;;;;;;;;;3.60;2.80;;;;;10.25;53.29;99238.13;6233761;28;98551;-65
2022/12/27 07:30:22;;;;;;;;;2.00;2.00;;;;;10.38;53.59;99242.63;6247314;27;97624;-65
2022/12/27 07:33:26;;;;;;;;;3.00;3.00;;;;;10.40;53.29;99243.25;6242552;27;96619;-65
2022/12/27 07:36:33;;;;;;;;;3.25;3.00;;;;;10.35;52.66;99238.50;6234282;27;97658;-65
2022/12/27 07:39:37;;;;;;;;;3.00;2.33;;;;;10.26;52.75;99230.88;6254284;27;96458;-65
2022/12/27 07:42:40;;;;;;;;;1.20;1.20;;;;;10.38;53.22;99239.94;6251178;27;96530;-64
2022/12/27 07:45:43;;;;;;;;;2.00;2.00;;;;;10.45;53.48;99242.63;6263814;27;96267;-64
2022/12/27 07:48:48;;;;;;;;;3.40;2.60;;;;;10.56;53.97;99252.72;6266399;27;96390;-64
2022/12/27 07:51:52;;;;;;;;;3.60;2.60;;;;;10.46;54.28;99263.97;6239547;27;98048;-64
2022/12/27 07:54:55;;;;;;;;;4.40;4.00;;;;;10.36;54.17;99269.00;6260463;27;96257;-64
2022/12/27 07:57:58;;;;;;;;;4.60;3.60;;;;;10.41;54.48;99278.06;6260553;27;96356;-64
2022/12/27 08:01:04;;;;;;;;;3.00;3.00;;;;;10.36;53.89;99282.47;6221850;22;96819;-64
2022/12/27 08:04:08;;;;;;;;;2.00;2.00;;;;;10.33;54.01;99299.03;6208246;28;96266;-65
2022/12/27 08:07:15;;;;;;;;;2.60;1.60;;;;;10.21;53.55;99312.34;6204452;28;96346;-64
2022/12/27 08:10:19;;;;;;;;;3.60;3.00;;;;;10.24;54.02;99317.31;6208381;28;97033;-65
2022/12/27 08:13:22;;;;;;;;;3.67;3.67;;;;;10.23;53.78;99323.72;6200943;28;96267;-65
2022/12/27 08:16:26;;;;;;;;;3.75;2.75;;;;;10.27;53.71;99333.03;6207322;28;96436;-65
2022/12/27 08:19:32;;;;;;;;;3.00;3.00;;;;;10.29;53.48;99339.06;6206812;28;96286;-64
2022/12/27 08:22:35;;;;;;;;;3.40;3.00;;;;;10.40;53.05;99354.59;6206264;28;96378;-65
2022/12/27 08:25:45;;;;;;;;;4.00;4.00;;;;;10.31;53.23;99355.03;6207610;28;96345;-65
2022/12/27 08:28:51;;;;;;;;;3.00;2.60;;;;;10.40;53.42;99370.78;6202945;28;96370;-64
2022/12/27 08:31:54;;;;;;;;;4.40;4.40;;;;;10.49;53.88;99371.38;6198937;28;96617;-65
2022/12/27 08:34:59;;;;;;;;;4.80;4.80;;;;;10.59;53.97;99358.31;6192141;28;96353;-65
2022/12/27 08:38:22;;;;;;;;;6.00;5.00;;;;;10.77;53.61;99358.47;6204230;28;96227;-65
2022/12/27 08:41:26;;;;;;;;;7.00;6.00;;;;;11.45;52.30;99355.28;6186553;28;96309;-65
2022/12/27 08:44:30;;;;;;;;;6.60;6.00;;;;;11.71;51.78;99372.19;6188837;28;96698;-65
2022/12/27 08:47:33;;;;;;;;;4.00;4.00;;;;;11.80;51.51;99377.34;6204337;28;96240;-64
2022/12/27 08:50:38;;;;;;;;;6.00;5.00;;;;;11.72;51.32;99381.13;6192060;28;96238;-65
2022/12/27 08:53:41;;;;;;;;;4.50;4.50;;;;;11.63;51.31;99383.22;6204786;28;96647;-65
2022/12/27 08:56:44;;;;;;;;;5.60;5.60;;;;;11.50;51.18;99394.09;6186345;28;96788;-65
2022/12/27 08:59:47;;;;;;;;;5.00;4.00;;;;;11.32;51.36;99402.09;6203612;28;96290;-64
2022/12/27 09:02:51;;;;;;;;;8.00;8.00;;;;;11.18;51.45;99400.47;6227065;28;96302;-65
2022/12/27 09:05:56;;;;;;;;;7.00;6.00;;;;;11.18;51.69;99397.78;6229414;28;96732;-64
2022/12/27 09:09:00;;;;;;;;;5.00;4.20;;;;;11.25;51.95;99402.09;6226839;28;96367;-64
2022/12/27 09:12:04;;;;;;;;;5.00;4.00;;;;;11.16;52.03;99406.09;6226285;28;97464;-64
2022/12/27 09:15:12;;;;;;;;;7.00;5.00;;;;;11.30;51.69;99404.16;6226300;28;96254;-65
2022/12/27 09:18:15;;;;;;;;;5.00;5.00;;;;;11.70;50.57;99410.19;6228126;28;96257;-64
2022/12/27 09:21:21;;;;;;;;;8.00;7.00;;;;;13.39;47.11;99405.41;6211813;28;97185;-65
2022/12/27 09:24:25;;;;;;;;;5.40;5.00;;;;;15.15;42.03;99416.44;6217195;28;96394;-65
2022/12/27 09:27:28;;;;;;;;;8.80;7.80;;;;;17.41;38.89;99409.00;6216407;28;96523;-66
2022/12/27 09:30:31;;;;;;;;;6.00;6.00;;;;;18.32;34.83;99413.59;6213743;28;96158;-66
2022/12/27 09:33:35;;;;;;;;;6.00;5.00;;;;;17.80;34.36;99412.47;6213306;28;96944;-65
2022/12/27 09:36:41;;;;;;;;;6.00;5.00;;;;;18.25;32.25;99412.97;6197046;28;96781;-65
2022/12/27 09:39:44;;;;;;;;;4.20;4.00;;;;;17.97;33.68;99415.97;6210944;28;96299;-65
2022/12/27 09:42:55;;;;;;;;;3.20;3.20;;;;;16.96;34.45;99422.84;6213175;28;96985;-65
2022/12/27 09:46:21;;;;;;;;;5.40;3.40;;;;;16.94;34.41;99405.91;6213308;28;96246;-65
2022/12/27 09:49:33;;;;;;;;;6.00;5.00;;;;;17.67;33.06;99419.16;6212691;28;96833;-65
2022/12/27 09:52:45;;;;;;;;;3.00;3.00;;;;;18.58;32.10;99415.47;6213360;28;96582;-66
2022/12/27 09:55:51;;;;;;;;;3.00;3.00;;;;;19.59;30.19;99422.69;6211564;28;97203;-68
2022/12/27 09:59:02;;;;;;;;;4.00;4.00;;;;;19.08;30.25;99402.41;6209438;28;96370;-67
2022/12/27 10:02:20;;;;;;;;;4.00;3.00;;;;;20.41;29.10;99427.28;6211403;28;96230;-68
2022/12/27 10:05:30;;;;;;;;;4.00;4.00;;;;;21.00;27.42;99411.09;6211359;28;96356;-66
2022/12/27 10:08:49;;;;;;;;;4.00;3.60;;;;;22.08;26.50;99422.28;6215034;28;96293;-68
2022/12/27 10:12:01;;;;;;;;;4.40;3.00;;;;;22.95;25.66;99426.00;6215355;28;96584;-67
2022/12/27 10:15:19;;;;;;;;;3.00;3.00;;;;;23.20;24.11;99422.19;6213859;28;96866;-66
2022/12/27 10:18:42;;;;;;;;;6.00;5.00;;;;;23.40;23.61;99435.72;6214215;28;97585;-67
2022/12/27 10:22:00;;;;;;;;;5.00;5.00;;;;;23.65;24.18;99418.13;6213958;28;96378;-66
2022/12/27 10:25:12;;;;;;;;;3.00;2.00;;;;;24.51;22.06;99437.03;6213827;28;96946;-67
2022/12/27 10:28:17;;;;;;;;;3.00;3.00;;;;;25.05;21.77;99427.31;6210746;28;96308;-68
2022/12/27 10:31:23;;;;;;;;;4.00;3.50;;;;;26.01;21.69;99410.75;6213576;28;96368;-68
2022/12/27 10:34:26;;;;;;;;;3.00;2.00;;;;;26.23;20.56;99421.91;6214081;28;99118;-69
2022/12/27 10:37:30;;;;;;;;;3.00;3.00;;;;;26.59;20.31;99408.03;6209521;28;96654;-68
2022/12/27 10:40:42;;;;;;;;;4.60;4.00;;;;;25.77;20.22;99422.88;6211188;28;97038;-67
2022/12/27 10:43:49;;;;;;;;;4.00;3.00;;;;;24.91;21.90;99419.03;6212330;28;96951;-68
2022/12/27 10:46:56;;;;;;;;;4.67;4.67;;;;;24.56;21.90;99422.34;6212600;28;96629;-66
2022/12/27 10:50:09;;;;;;;;;3.60;3.60;;;;;24.17;22.44;99425.41;6207411;28;96242;-66
2022/12/27 10:53:29;;;;;;;;;5.00;4.60;;;;;24.21;22.30;99412.69;6206626;28;97654;-66
2022/12/27 10:56:37;;;;;;;;;4.00;4.00;;;;;24.48;22.13;99412.00;6210847;28;97453;-68
2022/12/27 10:59:40;;;;;;;;;5.00;4.00;;;;;24.13;22.15;99410.56;6222601;28;96540;-68
2022/12/27 11:02:51;;;;;;;;;3.40;3.40;;;;;24.30;21.59;99399.88;6238262;28;97039;-68
2022/12/27 11:06:01;;;;;;;;;5.00;5.00;;;;;23.80;22.26;99395.88;6217117;28;96758;-66
2022/12/27 11:09:20;;;;;;;;;3.60;3.60;;;;;23.14;23.78;99415.91;6219693;28;96623;-67
2022/12/27 11:12:28;;;;;;;;;6.20;5.20;;;;;22.23;24.31;99411.19;6237160;28;96397;-67
2022/12/27 11:15:34;;;;;;;;;4.00;4.00;;;;;21.47;25.02;99407.97;6238101;28;96645;-67
2022/12/27 11:18:45;;;;;;;;;3.50;3.50;;;;;21.56;24.82;99418.09;6237645;27;96656;-66
2022/12/27 11:21:49;;;;;;;;;5.00;5.00;;;;;20.90;24.58;99414.69;6216683;28;96348;-67
2022/12/27 11:24:58;;;;;;;;;4.00;4.00;;;;;20.10;25.53;99413.53;6221055;28;96706;-66
2022/12/27 11:28:05;;;;;;;;;3.40;3.40;;;;;19.15;26.59;99422.16;6232593;28;96797;-67
2022/12/27 11:31:11;;;;;;;;;4.40;4.40;;;;;18.09;28.33;99420.16;6228318;28;97878;-67
2022/12/27 11:34:18;;;;;;;;;4.00;4.00;;;;;17.56;29.21;99420.09;6209690;28;96822;-67
2022/12/27 11:37:25;;;;;;;;;4.80;4.80;;;;;16.76;30.60;99417.91;6236971;28;96358;-67
2022/12/27 11:40:33;;;;;;;;;7.80;6.80;;;;;16.15;32.38;99424.19;6210619;28;96715;-66
2022/12/27 11:43:45;;;;;;;;;6.25;6.00;;;;;15.31;34.06;99425.75;6238073;28;96204;-67
2022/12/27 11:46:54;;;;;;;;;7.00;6.40;;;;;14.79;35.13;99425.69;6233203;28;97176;-68
2022/12/27 11:50:18;;;;;;;;;6.50;6.50;;;;;14.46;36.18;99426.25;6238203;28;96802;-67
2022/12/27 11:53:45;;;;;;;;;6.00;5.00;;;;;14.86;35.70;99415.50;6237819;28;96637;-66
2022/12/27 11:57:06;;;;;;;;;8.00;6.20;;;;;14.46;35.65;99418.13;6224552;28;96491;-67
2022/12/27 12:00:18;;;;;;;;;6.00;5.50;;;;;14.23;35.92;99420.72;6235527;28;96624;-67
2022/12/27 12:03:48;;;;;;;;;8.00;7.00;;;;;13.74;36.62;99411.00;6215679;28;97285;-67
2022/12/27 12:07:03;;;;;;;;;8.00;7.00;;;;;13.26;37.72;99422.66;6233843;28;96253;-66
2022/12/27 12:10:21;;;;;;;;;7.00;6.00;;;;;13.04;37.92;99418.72;6230083;28;96254;-66
2022/12/27 12:13:54;;;;;;;;;9.60;7.00;;;;;13.04;38.29;99405.19;6238171;27;97486;-67
2022/12/27 12:17:15;;;;;;;;;7.40;6.40;;;;;13.05;38.21;99412.25;6220921;28;96684;-67
2022/12/27 12:20:46;;;;;;;;;7.00;7.00;;;;;13.14;37.59;99404.69;6238139;28;96343;-66
2022/12/27 12:24:28;;;;;;;;;5.80;5.20;;;;;13.30;37.16;99417.63;6235447;28;96354;-67
2022/12/27 12:27:44;;;;;;;;;8.60;8.00;;;;;13.15;37.09;99407.16;6229312;28;97032;-67
2022/12/27 12:31:05;;;;;;;;;6.00;6.00;;;;;13.07;37.21;99417.44;6232643;28;96473;-67
2022/12/27 12:34:26;;;;;;;;;7.00;6.60;;;;;12.87;37.82;99425.75;6233949;27;96347;-67
2022/12/27 12:37:53;;;;;;;;;6.00;6.00;;;;;12.50;38.42;99420.28;6236606;28;96838;-66
2022/12/27 12:41:23;;;;;;;;;6.00;6.00;;;;;12.28;39.18;99440.63;6224669;28;96612;-67
2022/12/27 12:45:20;;;;;;;;;7.00;5.50;;;;;12.07;39.66;99422.88;6223653;28;96840;-66
2022/12/27 12:48:45;;;;;;;;;6.67;6.00;;;;;11.60;39.99;99423.34;6134642;28;96424;-67
2022/12/27 12:52:23;;;;;;;;;6.80;6.00;;;;;11.31;40.80;99411.22;6229579;28;96282;-66
2022/12/27 12:55:37;;;;;;;;;9.00;7.00;;;;;11.01;41.53;99427.09;6212749;28;96660;-67
2022/12/27 12:58:52;;;;;;;;;8.00;7.50;;;;;11.01;41.42;99437.88;6226636;28;96994;-67
2022/12/27 13:02:18;;;;;;;;;5.60;5.40;;;;;11.15;40.99;99431.41;6234668;28;96355;-66
2022/12/27 13:05:32;;;;;;;;;9.00;8.00;;;;;11.10;41.33;99433.91;6228216;28;96938;-67
2022/12/27 13:08:44;;;;;;;;;4.00;4.00;;;;;11.04;41.27;99440.16;6233831;28;96517;-67
2022/12/27 13:11:57;;;;;;;;;7.50;7.00;;;;;11.11;41.08;99422.06;6231719;28;96556;-67
2022/12/27 13:15:19;;;;;;;;;5.00;4.67;;;;;11.10;41.21;99419.59;6234816;28;97301;-67
2022/12/27 13:18:31;;;;;;;;;6.25;6.00;;;;;11.07;41.25;99417.31;6236948;28;96280;-66
2022/12/27 13:21:53;;;;;;;;;6.00;5.00;;;;;10.89;41.32;99431.47;6228868;28;97023;-66
2022/12/27 13:25:10;;;;;;;;;8.00;7.00;;;;;11.03;41.19;99427.72;6229237;28;96303;-67
2022/12/27 13:28:28;;;;;;;;;7.00;6.20;;;;;11.06;41.22;99432.69;6232878;28;97228;-67
2022/12/27 13:31:44;;;;;;;;;7.25;5.75;;;;;11.06;40.60;99431.84;6235354;28;96399;-67
2022/12/27 13:35:03;;;;;;;;;6.80;5.40;;;;;10.97;40.72;99447.44;6234657;28;96559;-66
2022/12/27 13:38:23;;;;;;;;;6.00;6.00;;;;;10.94;40.68;99445.19;6215845;28;96842;-66
2022/12/27 13:41:44;;;;;;;;;6.00;6.00;;;;;10.98;41.11;99446.41;6224735;27;96413;-66
2022/12/27 13:45:02;;;;;;;;;7.60;7.60;;;;;11.07;40.37;99445.13;6224599;28;96918;-67
2022/12/27 13:48:19;;;;;;;;;7.60;7.60;;;;;11.13;40.34;99440.78;6236350;28;96154;-66
2022/12/27 13:51:42;;;;;;;;;7.60;7.60;;;;;11.01;40.45;99454.06;6217978;28;96474;-67
2022/12/27 13:55:21;;;;;;;;;10.00;9.00;;;;;11.09;40.72;99453.84;6236382;28;96294;-67
2022/12/27 13:58:52;;;;;;;;;8.00;8.00;;;;;11.00;40.67;99454.25;6235639;28;96466;-66
2022/12/27 14:02:23;;;;;;;;;10.60;9.60;;;;;11.03;40.54;99453.88;6233623;28;96928;-66
2022/12/27 14:05:56;;;;;;;;;7.00;7.00;;;;;10.86;40.81;99466.94;6236328;28;96405;-66
2022/12/27 14:09:35;;;;;;;;;9.60;8.60;;;;;10.84;40.96;99459.09;6230767;28;96364;-66
2022/12/27 14:12:57;;;;;;;;;7.00;7.00;;;;;10.75;41.09;99456.81;6232834;28;96658;-66
2022/12/27 14:16:43;;;;;;;;;9.00;8.00;;;;;10.72;41.31;99468.84;6232944;28;96714;-67
2022/12/27 14:20:12;;;;;;;;;10.00;9.00;;;;;10.57;41.39;99464.69;6213379;28;96355;-66
2022/12/27 14:23:44;;;;;;;;;9.00;8.00;;;;;10.66;40.83;99482.31;6212016;28;96653;-66
2022/12/27 14:27:22;;;;;;;;;6.60;6.00;;;;;10.63;40.77;99478.19;6233106;28;96341;-66
2022/12/27 14:30:59;;;;;;;;;6.00;5.00;;;;;10.66;40.77;99475.06;6233774;28;98045;-68
2022/12/27 14:34:40;;;;;;;;;6.20;6.00;;;;;10.61;40.41;99482.94;6232306;27;96702;-67
2022/12/27 14:41:42;;;;;;;;;9.00;8.40;;;;;10.68;40.60;99501.81;6323390;27;96342;-66
2022/12/27 14:45:22;;;;;;;;;8.20;6.60;;;;;10.76;40.80;99507.84;6291230;27;97102;-67
2022/12/27 14:49:03;;;;;;;;;10.40;10.00;;;;;10.61;40.86;99506.38;6287809;27;96933;-66
2022/12/27 14:52:45;;;;;;;;;11.00;10.00;;;;;10.57;41.51;99491.66;6297813;27;96414;-67
2022/12/27 14:55:56;;;;;;;;;9.00;8.60;;;;;10.44;41.75;99503.28;6236084;27;98443;-67
2022/12/27 14:59:15;;;;;;;;;8.00;8.00;;;;;10.27;42.09;99510.91;6302280;27;96806;-66
2022/12/27 15:02:33;;;;;;;;;7.80;7.00;;;;;10.21;42.34;99513.59;6295612;27;96738;-66
2022/12/27 15:05:53;;;;;;;;;8.00;7.80;;;;;10.17;41.87;99501.53;6294962;27;98384;-66
2022/12/27 15:09:07;;;;;;;;;7.00;6.75;;;;;10.19;41.54;99503.03;6297108;27;98224;-67
2022/12/27 15:12:24;;;;;;;;;11.00;9.00;;;;;10.17;41.93;99499.69;6303283;27;96674;-66
2022/12/27 15:15:44;;;;;;;;;7.00;6.80;;;;;10.25;42.21;99509.47;6305825;27;97119;-65
2022/12/27 15:19:06;;;;;;;;;9.50;8.50;;;;;10.27;42.38;99515.47;6293179;27;96283;-67
2022/12/27 15:22:21;;;;;;;;;11.00;11.00;;;;;10.17;42.33;99515.03;6276451;27;96867;-67
2022/12/27 15:25:39;;;;;;;;;17.40;16.40;;;;;10.13;42.62;99525.34;6293278;27;97563;-66
2022/12/27 15:29:05;;;;;;;;;11.20;11.20;;;;;10.07;42.96;99523.47;6291814;27;96696;-66
2022/12/27 15:32:24;;;;;;;;;113.00;104.00;;;;;10.10;42.98;99530.31;6292307;27;96849;-65
2022/12/27 15:35:48;;;;;;;;;45.50;38.75;;;;;10.08;42.99;99540.47;6285089;27;98017;-66
2022/12/27 15:38:53;;;;;;;;;27.80;25.00;;;;;9.94;42.93;99528.81;6258475;27;96692;-66
2022/12/27 15:42:08;;;;;;;;;20.00;18.60;;;;;9.97;42.78;99540.00;6194739;27;97287;-66
2022/12/27 15:45:26;;;;;;;;;14.25;13.25;;;;;10.01;42.43;99543.16;6188529;27;96669;-66
2022/12/27 15:49:00;;;;;;;;;14.00;13.00;;;;;10.01;42.70;99543.16;6191082;27;96262;-66
2022/12/27 15:52:12;;;;;;;;;13.00;12.00;;;;;9.76;42.64;99509.69;6184489;27;96366;-66
2022/12/27 15:55:30;;;;;;;;;11.00;10.75;;;;;9.88;42.75;99522.38;6172394;27;96201;-66
2022/12/27 15:58:34;;;;;;;;;13.60;12.40;;;;;10.01;42.83;99535.06;6172476;27;96903;-66
2022/12/27 16:01:38;;;;;;;;;13.40;12.40;;;;;9.97;43.03;99537.31;6174570;27;96934;-66
2022/12/27 16:04:49;;;;;;;;;12.75;12.75;;;;;9.81;43.10;99524.22;6157976;27;98381;-66
2022/12/27 16:08:13;;;;;;;;;12.60;11.60;;;;;9.93;43.13;99538.75;6178924;27;97204;-66
2022/12/27 16:11:17;;;;;;;;;12.00;12.00;;;;;9.78;42.91;99545.31;6182007;27;96536;-67
2022/12/27 16:14:28;;;;;;;;;10.00;9.00;;;;;9.68;42.87;99539.47;6181552;27;96628;-67
2022/12/27 16:17:38;;;;;;;;;14.80;13.20;;;;;9.60;43.07;99540.47;6158150;27;96628;-66
2022/12/27 16:20:55;;;;;;;;;10.00;9.40;;;;;9.52;43.28;99554.94;6158565;27;97352;-66
2022/12/27 16:24:05;;;;;;;;;11.00;10.40;;;;;9.55;43.15;99556.41;6182730;27;96753;-65
2022/12/27 16:27:27;;;;;;;;;10.25;9.00;;;;;9.51;43.01;99565.91;6161019;27;97278;-66
2022/12/27 16:30:46;;;;;;;;;7.00;7.00;;;;;9.34;43.49;99560.00;6165518;27;98398;-66
2022/12/27 16:33:51;;;;;;;;;8.00;8.00;;;;;9.39;43.44;99591.69;6187682;27;96671;-66
2022/12/27 16:36:59;;;;;;;;;16.00;14.75;;;;;9.51;43.36;99596.34;6165894;27;96562;-65
2022/12/27 16:40:23;;;;;;;;;71.25;60.00;;;;;9.45;43.25;99607.91;6166063;27;96702;-65